Time;durP1;ratioP1;P1;durP2;ratioP2;P2;SDS_P1;SDS_P2;PMS_P1;PMS_P2;Temp;Humidity;BMP_temperature;BMP_pressure;BME280_temperature;BME280_humidity;BME280_pressure;Samples;Min_cycle;Max_cycle;Signal;HPM_P1;HPM_P2
2023/09/14 00:02:27;;;;;;;8.10;1.80;;;;;;;17.89;76.18;100742.44;5069662;28;20280;-56
2023/09/14 00:04:57;;;;;;;6.37;1.00;;;;;;;18.00;76.12;100734.13;5044494;28;20278;-59
2023/09/14 00:07:28;;;;;;;2.47;1.03;;;;;;;18.12;77.27;100745.97;5033213;28;20715;-58
2023/09/14 00:09:58;;;;;;;3.00;1.17;;;;;;;18.23;77.24;100732.31;5044177;28;20329;-57
2023/09/14 00:12:30;;;;;;;2.00;1.30;;;;;;;18.44;76.89;100741.16;5033613;28;20479;-57
2023/09/14 00:15:01;;;;;;;4.30;1.30;;;;;;;18.49;75.69;100741.81;5044132;28;20293;-58
2023/09/14 00:17:32;;;;;;;3.83;0.90;;;;;;;18.03;73.98;100673.16;5032946;28;20305;-57
2023/09/14 00:20:02;;;;;;;2.37;0.60;;;;;;;18.34;72.46;100722.16;5042248;28;20275;-58
2023/09/14 00:22:33;;;;;;;3.30;0.80;;;;;;;18.45;71.88;100740.25;5043865;28;20291;-57
2023/09/14 00:25:04;;;;;;;1.30;0.63;;;;;;;18.48;72.62;100746.25;5037281;28;20289;-59
2023/09/14 00:27:36;;;;;;;3.00;0.60;;;;;;;18.51;71.13;100746.13;5043839;28;20313;-59
2023/09/14 00:30:08;;;;;;;1.13;0.57;;;;;;;18.56;71.99;100753.03;5033604;28;20311;-59
2023/09/14 00:32:40;;;;;;;1.93;0.63;;;;;;;18.56;69.31;100753.03;5044096;28;20283;-59
2023/09/14 00:35:11;;;;;;;1.67;0.80;;;;;;;18.62;68.48;100736.88;5033832;28;20369;-57
2023/09/14 00:37:43;;;;;;;2.57;0.77;;;;;;;18.64;69.01;100724.44;5044210;28;20376;-59
2023/09/14 00:40:14;;;;;;;3.27;0.90;;;;;;;18.68;66.55;100731.34;5033700;28;20293;-59
2023/09/14 00:42:48;;;;;;;1.00;0.57;;;;;;;18.67;65.08;100734.91;5044207;28;20799;-60
2023/09/14 00:45:20;;;;;;;3.77;0.90;;;;;;;18.57;66.16;100717.69;5056292;28;20293;-58
2023/09/14 00:47:52;;;;;;;4.10;1.33;;;;;;;18.81;65.39;100737.84;5087182;28;20285;-58
2023/09/14 00:50:23;;;;;;;0.90;0.50;;;;;;;18.64;65.39;100680.31;5076689;28;20291;-58
2023/09/14 00:52:57;;;;;;;1.10;0.63;;;;;;;18.87;63.17;100737.59;5087139;28;20372;-59
2023/09/14 00:55:29;;;;;;;1.30;0.60;;;;;;;18.92;63.86;100735.63;5076538;28;20788;-57
2023/09/14 00:58:02;;;;;;;1.97;0.70;;;;;;;18.98;63.80;100731.84;5087392;28;20371;-59
2023/09/14 01:00:34;;;;;;;1.07;0.57;;;;;;;18.93;62.35;100717.94;5076496;28;20274;-58
2023/09/14 01:03:04;;;;;;;3.80;0.63;;;;;;;19.02;61.49;100724.59;5066528;28;20307;-56
2023/09/14 01:05:36;;;;;;;1.70;0.50;;;;;;;19.03;62.16;100699.84;5047059;28;20366;-58
2023/09/14 01:08:07;;;;;;;2.50;0.90;;;;;;;19.16;63.28;100693.06;5051260;28;20310;-59
2023/09/14 01:10:37;;;;;;;0.97;0.70;;;;;;;19.27;62.65;100706.69;5067222;28;20380;-57
2023/09/14 01:13:18;;;;;;;1.80;0.50;;;;;;;19.40;62.82;100710.50;5039061;28;20968;-58
2023/09/14 01:15:53;;;;;;;1.43;0.53;;;;;;;19.49;60.63;100703.03;5046926;28;20278;-59
2023/09/14 01:18:30;;;;;;;1.57;0.70;;;;;;;19.52;59.17;100709.09;5036928;28;21417;-59
2023/09/14 01:21:47;;;;;;;4.13;0.73;;;;;;;19.54;57.87;100711.66;5047198;28;20360;-58
2023/09/14 01:24:24;;;;;;;1.30;0.70;;;;;;;19.66;59.25;100700.47;5036244;28;20297;-58
2023/09/14 01:26:58;;;;;;;1.43;0.60;;;;;;;19.77;58.41;100702.66;5046633;28;20309;-58
2023/09/14 01:29:29;;;;;;;3.07;0.80;;;;;;;19.85;58.16;100704.94;5036070;28;20309;-58
2023/09/14 01:31:59;;;;;;;0.90;0.57;;;;;;;19.94;61.09;100694.72;5046517;28;20286;-59
2023/09/14 01:34:30;;;;;;;0.80;0.60;;;;;;;19.90;59.91;100695.84;5035906;28;20362;-58
2023/09/14 01:37:05;;;;;;;1.53;0.70;;;;;;;19.78;60.29;100699.91;5046706;28;20785;-59
2023/09/14 01:39:36;;;;;;;1.53;0.50;;;;;;;19.65;59.73;100688.16;5036102;28;20282;-58
2023/09/14 01:42:09;;;;;;;2.53;0.67;;;;;;;19.67;59.48;100696.94;5067246;28;20292;-58
2023/09/14 01:44:40;;;;;;;1.80;0.50;;;;;;;19.55;59.23;100686.88;5086093;28;20321;-58
2023/09/14 01:47:10;;;;;;;1.13;0.60;;;;;;;19.64;60.47;100691.72;5075799;28;20743;-59
2023/09/14 01:49:41;;;;;;;2.67;0.60;;;;;;;19.69;61.59;100689.75;5086109;28;20393;-57
2023/09/14 01:52:12;;;;;;;0.73;0.53;;;;;;;19.67;59.39;100686.34;5075609;28;20289;-60
2023/09/14 01:54:43;;;;;;;2.17;0.60;;;;;;;19.68;58.46;100682.75;5085462;28;20284;-59
2023/09/14 01:57:15;;;;;;;1.00;0.63;;;;;;;19.68;57.26;100688.03;5074827;28;20747;-59
2023/09/14 01:59:45;;;;;;;4.47;1.10;;;;;;;19.60;58.39;100684.88;5086253;28;20790;-58
2023/09/14 02:02:16;;;;;;;2.37;0.60;;;;;;;19.74;59.39;100703.63;5073190;28;20277;-58
2023/09/14 02:04:49;;;;;;;0.87;0.57;;;;;;;19.76;57.12;100696.47;5064657;28;20752;-58
2023/09/14 02:07:19;;;;;;;1.63;0.60;;;;;;;19.76;56.54;100688.53;5055420;28;20298;-58
2023/09/14 02:09:50;;;;;;;6.87;1.00;;;;;;;19.82;58.03;100677.63;5065337;28;20317;-58
2023/09/14 02:12:24;;;;;;;3.63;1.00;;;;;;;19.80;57.50;100671.53;5055596;28;20293;-59
2023/09/14 02:14:54;;;;;;;1.70;0.70;;;;;;;19.79;59.30;100664.53;5065721;28;20756;-58
2023/09/14 02:17:25;;;;;;;2.77;0.60;;;;;;;19.85;61.01;100673.13;5054765;28;20841;-58
2023/09/14 02:19:56;;;;;;;3.73;0.83;;;;;;;19.82;62.19;100664.38;5065641;28;20305;-58
2023/09/14 02:22:26;;;;;;;1.80;0.50;;;;;;;19.98;61.94;100668.94;5054637;28;20314;-58
2023/09/14 02:24:57;;;;;;;1.43;0.60;;;;;;;20.06;60.59;100661.44;5065462;28;20309;-59
2023/09/14 02:27:29;;;;;;;4.00;0.93;;;;;;;20.02;58.01;100657.25;5054966;28;20285;-60
2023/09/14 02:30:00;;;;;;;3.03;1.17;;;;;;;20.04;58.88;100658.00;5065550;28;20317;-60
2023/09/14 02:32:30;;;;;;;1.33;0.70;;;;;;;20.06;60.17;100666.75;5054069;28;20744;-59
2023/09/14 02:35:01;;;;;;;2.57;1.17;;;;;;;20.02;59.89;100665.22;5064580;28;20282;-59
2023/09/14 02:37:32;;;;;;;0.87;0.60;;;;;;;19.97;61.67;100677.84;5063069;28;20817;-57
2023/09/14 02:40:03;;;;;;;1.57;0.50;;;;;;;19.88;62.41;100673.81;5083998;28;20312;-58
2023/09/14 02:42:37;;;;;;;2.77;0.80;;;;;;;19.91;61.97;100678.13;5085181;28;20354;-58
2023/09/14 02:45:08;;;;;;;3.27;0.67;;;;;;;19.90;62.52;100665.81;5074539;28;20374;-59
2023/09/14 02:47:38;;;;;;;1.33;0.70;;;;;;;19.82;61.67;100669.69;5085107;28;20360;-58
2023/09/14 02:50:09;;;;;;;6.00;0.90;;;;;;;19.81;60.76;100673.25;5074143;28;20318;-59
2023/09/14 02:52:39;;;;;;;1.17;0.63;;;;;;;19.79;59.56;100669.84;5085023;28;20651;-58
2023/09/14 02:55:10;;;;;;;1.23;0.50;;;;;;;19.72;60.68;100668.41;5074069;28;20289;-59
2023/09/14 02:57:42;;;;;;;1.73;0.50;;;;;;;19.78;59.75;100684.00;5084622;28;20277;-59
2023/09/14 03:00:17;;;;;;;1.90;0.70;;;;;;;19.79;60.07;100675.16;5061889;28;20366;-60
2023/09/14 03:02:47;;;;;;;1.97;0.67;;;;;;;19.84;59.34;100688.16;5065426;28;20278;-59
2023/09/14 03:05:18;;;;;;;1.43;0.67;;;;;;;19.86;58.46;100680.13;5039748;28;20283;-58
2023/09/14 03:07:49;;;;;;;1.03;0.60;;;;;;;19.94;56.52;100683.28;5044686;28;20283;-59
2023/09/14 03:10:20;;;;;;;1.50;0.70;;;;;;;20.02;56.98;100681.13;5034576;28;20729;-59
2023/09/14 03:12:52;;;;;;;3.07;0.67;;;;;;;20.10;57.08;100673.63;5044820;28;20266;-59
2023/09/14 03:15:22;;;;;;;1.83;0.70;;;;;;;20.20;59.10;100658.97;5035127;28;20287;-59
2023/09/14 03:17:53;;;;;;;1.90;0.80;;;;;;;20.22;55.40;100662.41;5044453;28;20298;-58
2023/09/14 03:20:24;;;;;;;1.40;0.67;;;;;;;20.19;54.59;100651.97;5034032;28;20272;-59
2023/09/14 03:22:54;;;;;;;1.30;0.70;;;;;;;20.22;55.90;100646.50;5045255;28;20418;-58
2023/09/14 03:25:25;;;;;;;5.97;1.87;;;;;;;20.35;58.74;100653.84;5034455;28;20721;-58
2023/09/14 03:27:57;;;;;;;4.63;1.70;;;;;;;20.39;60.07;100652.72;5044521;28;20271;-59
2023/09/14 03:30:27;;;;;;;2.10;1.13;;;;;;;20.26;62.26;100626.81;5033399;28;20274;-60
2023/09/14 03:32:58;;;;;;;2.07;1.00;;;;;;;20.42;58.69;100657.91;5048332;28;20332;-59
2023/09/14 03:35:28;;;;;;;3.03;1.17;;;;;;;20.47;59.92;100661.19;5073432;28;20336;-58
2023/09/14 03:37:59;;;;;;;2.70;0.90;;;;;;;20.51;58.61;100657.41;5084227;28;20735;-59
2023/09/14 03:40:29;;;;;;;2.13;1.20;;;;;;;20.43;54.84;100659.59;5073371;28;20334;-58
2023/09/14 03:43:01;;;;;;;3.00;0.80;;;;;;;20.42;56.14;100653.44;5084137;28;20357;-57
2023/09/14 03:45:32;;;;;;;3.13;1.30;;;;;;;20.58;60.55;100648.22;5073306;28;20289;-59
2023/09/14 03:48:03;;;;;;;7.30;1.70;;;;;;;20.46;57.32;100635.56;5082127;28;20277;-58
2023/09/14 03:50:33;;;;;;;3.40;0.90;;;;;;;20.58;55.87;100653.53;5084164;28;20405;-58
2023/09/14 03:53:04;;;;;;;3.07;0.90;;;;;;;20.60;56.55;100650.81;5075545;28;20377;-59
2023/09/14 03:55:36;;;;;;;2.33;1.33;;;;;;;20.57;55.14;100630.59;5073993;28;21123;-58
2023/09/14 03:58:08;;;;;;;1.40;1.03;;;;;;;20.57;55.21;100646.53;5034183;28;20344;-59
2023/09/14 04:00:39;;;;;;;2.70;1.00;;;;;;;20.56;53.82;100647.44;5044073;28;20278;-58
2023/09/14 04:03:10;;;;;;;1.53;1.00;;;;;;;20.47;51.33;100640.78;5037343;28;21045;-59
2023/09/14 04:05:40;;;;;;;0.93;0.70;;;;;;;20.42;52.30;100628.72;5044118;28;20633;-59
2023/09/14 04:08:11;;;;;;;3.43;0.80;;;;;;;20.34;52.57;100633.53;5033848;28;20371;-58
2023/09/14 04:10:42;;;;;;;1.27;0.73;;;;;;;20.21;51.94;100628.84;5044129;28;20271;-60
2023/09/14 04:13:37;;;;;;;2.80;0.90;;;;;;;20.29;53.45;100638.22;5034055;28;20818;-60
2023/09/14 04:16:08;;;;;;;1.33;0.73;;;;;;;20.26;53.09;100637.44;5011653;28;20370;-58
2023/09/14 04:18:38;;;;;;;1.40;0.70;;;;;;;20.32;52.69;100638.03;5044126;28;20321;-60
2023/09/14 04:21:09;;;;;;;2.67;0.60;;;;;;;20.36;53.62;100647.59;5036303;28;20283;-60
2023/09/14 04:23:40;;;;;;;1.80;0.73;;;;;;;20.46;54.08;100654.13;5048593;28;20613;-59
2023/09/14 04:26:10;;;;;;;0.90;0.80;;;;;;;20.50;54.50;100653.06;5037817;28;20278;-60
2023/09/14 04:28:42;;;;;;;4.67;0.87;;;;;;;20.60;55.46;100638.38;5047599;28;20788;-58
2023/09/14 04:31:13;;;;;;;0.60;0.50;;;;;;;20.58;53.04;100636.75;5056180;28;20285;-59
2023/09/14 04:33:44;;;;;;;0.67;0.60;;;;;;;20.53;53.28;100634.31;5068013;28;20348;-59
2023/09/14 04:36:14;;;;;;;2.60;0.80;;;;;;;20.45;52.99;100636.50;5058491;28;20290;-59
2023/09/14 04:38:45;;;;;;;1.10;0.80;;;;;;;20.33;54.48;100631.81;5068100;28;20290;-59
2023/09/14 04:41:16;;;;;;;1.60;0.60;;;;;;;20.33;54.89;100637.13;5057470;28;20286;-61
2023/09/14 04:43:48;;;;;;;1.43;0.93;;;;;;;20.28;54.88;100626.75;5068109;28;20361;-57
2023/09/14 04:46:19;;;;;;;2.47;1.00;;;;;;;20.27;53.20;100638.31;5057344;28;20340;-58
2023/09/14 04:48:50;;;;;;;4.03;1.10;;;;;;;20.26;53.39;100634.78;5067210;28;20374;-60
2023/09/14 04:51:23;;;;;;;4.07;1.80;;;;;;;20.24;54.29;100636.66;5057882;28;20289;-59
2023/09/14 04:53:53;;;;;;;4.67;1.80;;;;;;;20.24;54.39;100641.97;5067548;28;20343;-59
2023/09/14 04:56:24;;;;;;;5.13;1.20;;;;;;;20.28;53.94;100647.13;5059850;28;20800;-59
2023/09/14 04:58:56;;;;;;;3.07;0.70;;;;;;;20.21;55.32;100643.91;5087092;28;20297;-58
2023/09/14 05:01:26;;;;;;;1.10;0.70;;;;;;;20.11;54.16;100632.91;5077043;28;20277;-59
2023/09/14 05:03:57;;;;;;;3.93;1.00;;;;;;;19.87;55.03;100586.38;5057716;28;20279;-60
2023/09/14 05:06:30;;;;;;;1.37;0.90;;;;;;;20.07;54.73;100610.13;5036584;28;20302;-59
2023/09/14 05:09:02;;;;;;;0.97;0.60;;;;;;;20.13;54.97;100609.81;5047386;28;20337;-59
2023/09/14 05:11:33;;;;;;;0.80;0.50;;;;;;;20.09;53.61;100602.94;5035842;28;20277;-59
2023/09/14 05:14:05;;;;;;;3.53;0.70;;;;;;;20.14;53.21;100610.66;5041832;28;20760;-58
2023/09/14 05:16:35;;;;;;;30.13;2.57;;;;;;;20.14;54.43;100616.81;5046574;28;20333;-58
2023/09/14 05:19:06;;;;;;;1.83;0.80;;;;;;;20.14;52.71;100608.84;5036043;28;20325;-60
2023/09/14 05:21:36;;;;;;;2.37;0.80;;;;;;;20.18;53.22;100617.53;5046821;28;20290;-59
2023/09/14 05:24:07;;;;;;;2.73;0.70;;;;;;;20.19;53.69;100614.81;5036284;28;20837;-60
2023/09/14 05:26:38;;;;;;;2.00;0.60;;;;;;;20.00;54.77;100579.53;5058285;28;20300;-59
2023/09/14 05:29:10;;;;;;;2.27;0.93;;;;;;;19.91;56.42;100566.72;5056711;28;20345;-59
2023/09/14 05:31:40;;;;;;;1.73;0.70;;;;;;;20.16;55.99;100604.34;5066770;28;20355;-59
2023/09/14 05:34:11;;;;;;;2.50;0.70;;;;;;;20.10;55.82;100612.63;5056156;28;20275;-59
2023/09/14 05:36:41;;;;;;;0.83;0.50;;;;;;;20.03;55.51;100604.09;5066586;28;20285;-60
2023/09/14 05:39:12;;;;;;;3.43;0.80;;;;;;;20.00;55.07;100614.88;5057012;28;20292;-59
2023/09/14 05:41:43;;;;;;;2.80;0.90;;;;;;;19.95;55.74;100605.44;5066432;28;20289;-60
2023/09/14 05:44:15;;;;;;;2.13;0.70;;;;;;;19.94;55.62;100609.84;5055993;28;20981;-59
2023/09/14 05:46:46;;;;;;;4.50;0.77;;;;;;;20.01;56.66;100615.72;5066832;28;20380;-59
2023/09/14 05:49:17;;;;;;;2.33;0.70;;;;;;;20.05;56.33;100598.72;5056233;28;20274;-60
2023/09/14 05:51:47;;;;;;;5.30;0.90;;;;;;;20.06;58.11;100597.78;5066765;28;20289;-59
2023/09/14 05:54:18;;;;;;;5.03;0.73;;;;;;;20.02;58.13;100597.09;5073354;28;20354;-60
2023/09/14 05:56:48;;;;;;;2.37;0.80;;;;;;;20.00;58.60;100598.09;5086680;28;20805;-60
2023/09/14 05:59:21;;;;;;;4.87;1.10;;;;;;;19.94;59.51;100587.78;5075972;28;20368;-61
2023/09/14 06:02:01;;;;;;;4.50;0.97;;;;;;;19.88;59.50;100598.72;5085535;28;20645;-61
2023/09/14 06:04:32;;;;;;;5.33;0.87;;;;;;;19.83;60.76;100607.75;5034778;28;20362;-61
2023/09/14 06:07:03;;;;;;;1.20;0.90;;;;;;;19.26;62.35;100521.31;5043332;28;20332;-61
2023/09/14 06:09:33;;;;;;;6.53;1.23;;;;;;;19.75;64.91;100601.97;5045313;28;20283;-59
2023/09/14 06:12:04;;;;;;;5.97;1.20;;;;;;;19.64;66.93;100614.84;5038455;28;20283;-60
2023/09/14 06:14:37;;;;;;;6.60;1.20;;;;;;;19.54;67.85;100605.63;5045205;28;20577;-60
2023/09/14 06:17:07;;;;;;;6.10;1.10;;;;;;;19.42;67.87;100607.09;5034854;28;20816;-61
2023/09/14 06:19:38;;;;;;;1.73;0.93;;;;;;;19.26;66.56;100606.94;5044871;28;20291;-58
2023/09/14 06:22:08;;;;;;;5.73;0.97;;;;;;;19.11;65.92;100612.97;5040034;28;20317;-60
2023/09/14 06:24:39;;;;;;;3.93;0.80;;;;;;;19.07;66.20;100608.72;5066183;28;20814;-60
2023/09/14 06:27:10;;;;;;;4.50;1.20;;;;;;;19.04;66.03;100612.38;5056263;28;20305;-59
2023/09/14 06:29:42;;;;;;;1.40;0.90;;;;;;;18.95;66.33;100618.97;5065479;28;20397;-59
2023/09/14 06:32:12;;;;;;;1.63;1.00;;;;;;;18.92;67.29;100605.88;5055627;28;20377;-60
2023/09/14 06:34:43;;;;;;;4.70;1.00;;;;;;;18.87;68.57;100615.81;5065998;28;20387;-60
2023/09/14 06:37:13;;;;;;;4.87;0.90;;;;;;;18.82;69.61;100612.50;5055278;28;20310;-61
2023/09/14 06:39:44;;;;;;;4.60;1.00;;;;;;;18.67;71.08;100589.31;5065582;28;20290;-61
2023/09/14 06:42:14;;;;;;;3.60;1.03;;;;;;;18.77;70.80;100625.09;5056563;28;20301;-60
2023/09/14 06:44:46;;;;;;;2.87;1.00;;;;;;;18.71;70.83;100620.03;5064378;28;20305;-60
2023/09/14 06:47:17;;;;;;;4.47;1.07;;;;;;;18.64;71.42;100603.53;5054929;28;20290;-59
2023/09/14 06:49:48;;;;;;;2.87;1.07;;;;;;;18.62;72.83;100613.38;5075927;28;20316;-60
2023/09/14 06:52:18;;;;;;;5.03;1.00;;;;;;;18.59;73.54;100604.69;5075310;28;20305;-59
2023/09/14 06:54:49;;;;;;;9.20;1.17;;;;;;;18.55;74.45;100609.28;5085470;28;20576;-59
2023/09/14 06:57:20;;;;;;;4.73;1.33;;;;;;;18.48;74.29;100602.53;5075758;28;20281;-60
2023/09/14 06:59:52;;;;;;;2.70;1.20;;;;;;;18.54;73.93;100603.09;5084896;28;20278;-59
2023/09/14 07:02:22;;;;;;;2.67;1.00;;;;;;;18.54;72.99;100596.94;5071476;28;20757;-59
2023/09/14 07:04:53;;;;;;;2.53;0.67;;;;;;;18.54;73.00;100597.78;5044924;28;20307;-60
2023/09/14 07:07:25;;;;;;;5.07;0.83;;;;;;;18.25;73.10;100547.97;5034766;28;20276;-60
2023/09/14 07:09:55;;;;;;;2.93;0.90;;;;;;;18.53;72.60;100600.53;5045107;28;20297;-58
2023/09/14 07:12:26;;;;;;;2.07;0.90;;;;;;;18.50;72.98;100593.59;5034816;28;20369;-59
2023/09/14 07:14:58;;;;;;;3.07;0.93;;;;;;;18.46;72.60;100597.28;5045084;28;20797;-60
2023/09/14 07:17:29;;;;;;;2.93;1.20;;;;;;;18.43;72.59;100600.06;5034317;28;20732;-60
2023/09/14 07:20:00;;;;;;;1.37;0.83;;;;;;;18.40;71.86;100605.50;5062894;28;20301;-59
2023/09/14 07:22:30;;;;;;;5.63;1.20;;;;;;;18.36;74.44;100609.19;5054081;28;20270;-60
2023/09/14 07:25:01;;;;;;;1.67;1.00;;;;;;;18.32;74.56;100602.31;5064464;28;20278;-59
2023/09/14 07:27:31;;;;;;;3.17;1.10;;;;;;;18.29;75.20;100597.16;5054233;28;20278;-59
2023/09/14 07:30:04;;;;;;;2.87;1.20;;;;;;;18.30;74.72;100598.91;5063854;28;20314;-58
2023/09/14 07:32:34;;;;;;;4.40;1.27;;;;;;;18.38;74.00;100595.91;5064314;28;20294;-59
2023/09/14 07:35:05;;;;;;;3.13;1.00;;;;;;;18.42;73.98;100587.78;5054095;28;20313;-59
2023/09/14 07:37:36;;;;;;;2.77;1.10;;;;;;;18.42;73.78;100593.06;5064622;28;20319;-59
2023/09/14 07:40:07;;;;;;;2.50;1.20;;;;;;;18.07;73.40;100545.19;5053267;28;20366;-60
2023/09/14 07:42:38;;;;;;;4.33;0.90;;;;;;;18.27;73.69;100583.13;5044894;28;20301;-59
2023/09/14 07:45:11;;;;;;;10.77;1.77;;;;;;;18.34;74.75;100589.88;5038004;28;20381;-61
2023/09/14 07:47:41;;;;;;;4.83;1.00;;;;;;;18.33;74.92;100596.09;5064269;28;20369;-59
2023/09/14 07:50:12;;;;;;;2.47;1.20;;;;;;;18.28;74.80;100604.25;5053439;28;20293;-59
2023/09/14 07:52:42;;;;;;;3.47;0.90;;;;;;;18.25;74.74;100591.16;5064419;28;20282;-61
2023/09/14 07:55:13;;;;;;;1.73;1.03;;;;;;;18.26;74.15;100597.28;5054628;28;21221;-61
2023/09/14 07:57:44;;;;;;;2.80;0.90;;;;;;;18.16;74.58;100580.97;5069045;28;20747;-61
2023/09/14 08:00:16;;;;;;;4.17;0.90;;;;;;;18.32;74.64;100597.00;5058668;28;20290;-58
2023/09/14 08:02:47;;;;;;;5.77;1.30;;;;;;;18.33;75.07;100604.03;5068389;28;20274;-58
2023/09/14 08:05:17;;;;;;;2.87;0.90;;;;;;;18.28;74.02;100600.75;5058121;28;20304;-58
2023/09/14 08:07:48;;;;;;;6.50;1.20;;;;;;;18.25;73.04;100612.31;5068621;28;20353;-58
2023/09/14 08:10:19;;;;;;;2.90;1.10;;;;;;;18.25;74.16;100616.75;5058036;28;20270;-61
2023/09/14 08:12:50;;;;;;;1.43;1.00;;;;;;;18.24;75.42;100615.00;5068290;28;20278;-59
2023/09/14 08:15:22;;;;;;;3.93;1.43;;;;;;;18.22;77.23;100608.91;5058682;28;20339;-62
2023/09/14 08:17:52;;;;;;;5.13;1.13;;;;;;;18.18;78.33;100610.00;5068335;28;20278;-60
2023/09/14 08:20:23;;;;;;;2.37;1.10;;;;;;;18.16;79.72;100611.84;5057851;28;20322;-61
2023/09/14 08:22:53;;;;;;;6.20;1.40;;;;;;;18.09;80.62;100606.78;5068178;28;20332;-59
2023/09/14 08:25:24;;;;;;;3.53;1.10;;;;;;;17.95;81.61;100609.19;5058002;28;20272;-59
2023/09/14 08:27:56;;;;;;;2.53;1.20;;;;;;;17.80;82.35;100609.81;5067794;28;20277;-58
2023/09/14 08:30:28;;;;;;;4.07;0.90;;;;;;;17.61;82.39;100610.50;5057533;28;20285;-59
2023/09/14 08:32:58;;;;;;;6.53;2.27;;;;;;;17.52;82.71;100616.13;5068226;28;20282;-58
2023/09/14 08:35:31;;;;;;;7.73;2.17;;;;;;;17.39;82.90;100614.91;5056952;28;20744;-61
2023/09/14 08:38:03;;;;;;;7.07;2.47;;;;;;;17.25;83.78;100612.81;5067779;28;20274;-62
2023/09/14 08:40:34;;;;;;;10.70;4.83;;;;;;;16.97;84.42;100591.88;5057439;28;20282;-61
2023/09/14 08:43:10;;;;;;;6.93;4.10;;;;;;;16.88;85.54;100613.34;5040562;28;20340;-62
2023/09/14 08:45:43;;;;;;;14.17;6.90;;;;;;;16.51;86.22;100567.16;5047447;28;20362;-60
2023/09/14 08:48:16;;;;;;;4.30;1.50;;;;;;;16.47;86.84;100602.47;5037449;28;20282;-60
2023/09/14 08:50:49;;;;;;;6.50;1.60;;;;;;;16.25;88.02;100611.13;5047922;28;20393;-58
2023/09/14 08:53:20;;;;;;;3.23;1.13;;;;;;;16.02;89.08;100603.13;5037080;28;20750;-62
2023/09/14 08:55:51;;;;;;;6.77;3.80;;;;;;;15.77;90.86;100611.84;5047501;28;20788;-60
2023/09/14 08:58:23;;;;;;;12.33;5.83;;;;;;;15.53;92.74;100603.78;5037115;28;20275;-60
2023/09/14 09:00:57;;;;;;;17.93;7.47;;;;;;;15.46;94.60;100607.50;5046503;28;20752;-62
2023/09/14 09:03:28;;;;;;;12.50;6.00;;;;;;;15.34;95.64;100607.88;5048385;28;20966;-58
2023/09/14 09:05:58;;;;;;;7.70;3.83;;;;;;;15.07;96.47;100584.09;5067153;28;20378;-59
2023/09/14 09:08:29;;;;;;;13.03;6.43;;;;;;;14.98;97.86;100600.19;5056424;28;20274;-62
2023/09/14 09:11:02;;;;;;;6.03;3.50;;;;;;;14.93;98.52;100612.63;5066902;28;20395;-60
2023/09/14 09:13:36;;;;;;;11.13;2.20;;;;;;;14.74;99.72;100590.38;5056320;28;20357;-59
2023/09/14 09:16:13;;;;;;;10.63;1.93;;;;;;;14.77;100.00;100606.91;5056494;28;20298;-59
2023/09/14 09:19:03;;;;;;;8.80;1.00;;;;;;;14.64;100.00;100611.66;5066780;28;20318;-59
2023/09/14 09:21:39;;;;;;;10.60;2.10;;;;;;;14.51;100.00;100610.25;5056447;28;20285;-58
2023/09/14 09:24:14;;;;;;;1.67;1.17;;;;;;;14.39;100.00;100610.56;5056556;28;20808;-60
2023/09/14 09:26:46;;;;;;;2.40;1.13;;;;;;;14.35;99.30;100619.44;5065620;28;20278;-61
2023/09/14 09:29:19;;;;;;;5.97;1.30;;;;;;;14.27;98.43;100616.16;5056169;28;20274;-60
2023/09/14 09:35:37;;;;;;;6.60;2.07;;;;;;;14.14;96.57;100632.22;4900461;29;20698;-61
2023/09/14 09:38:15;;;;;;;9.07;3.70;;;;;;;13.89;96.11;100612.72;4969607;28;20280;-61
2023/09/14 09:40:48;;;;;;;4.37;2.47;;;;;;;13.87;96.11;100638.16;4988227;28;20275;-60
2023/09/14 09:43:20;;;;;;;5.90;2.45;;;;;;;13.37;95.57;100584.16;4979159;28;20338;-61
2023/09/14 09:45:54;;;;;;;5.60;2.95;;;;;;;13.49;95.28;100632.03;4990307;28;20056;-60
2023/09/14 09:48:29;;;;;;;3.75;1.80;;;;;;;13.33;94.78;100637.63;4978357;28;20141;-60
2023/09/14 09:51:03;;;;;;;5.85;1.40;;;;;;;12.92;94.25;100594.72;4988892;28;20053;-60
2023/09/14 09:53:37;;;;;;;1.30;1.20;;;;;;;13.10;94.14;100639.84;4979670;28;20045;-60
2023/09/14 09:56:20;;;;;;;4.20;1.38;;;;;;;13.01;94.06;100634.78;4979045;28;20541;-60
2023/09/14 09:58:52;;;;;;;3.38;1.17;;;;;;;12.88;94.07;100634.16;4988305;28;20068;-60
2023/09/14 10:01:24;;;;;;;3.78;1.00;;;;;;;12.14;94.68;100503.69;4978658;28;20039;-60
2023/09/14 10:03:59;;;;;;;1.13;0.80;;;;;;;12.79;95.12;100629.97;4988459;28;20056;-59
2023/09/14 10:06:32;;;;;;;3.28;1.30;;;;;;;12.70;95.52;100630.13;4977013;28;20932;-60
2023/09/14 10:09:06;;;;;;;2.17;0.95;;;;;;;12.60;96.48;100623.34;4985525;28;20529;-63
2023/09/14 10:11:39;;;;;;;3.10;1.67;;;;;;;12.65;96.55;100629.38;4988133;28;20045;-61
2023/09/14 10:14:14;;;;;;;2.08;1.17;;;;;;;12.55;96.95;100643.53;4978896;28;20049;-61
2023/09/14 10:16:47;;;;;;;2.03;1.30;;;;;;;12.38;97.45;100639.47;4988089;28;20046;-60
2023/09/14 10:19:22;;;;;;;3.20;1.33;;;;;;;12.25;98.09;100633.56;5034888;28;20035;-61
2023/09/14 10:21:58;;;;;;;3.08;1.80;;;;;;;12.03;98.84;100614.75;5070244;28;20035;-61
2023/09/14 10:24:30;;;;;;;5.70;2.05;;;;;;;11.99;99.30;100610.44;5059139;28;20056;-60
2023/09/14 10:27:03;;;;;;;10.30;3.78;;;;;;;12.09;99.52;100626.88;5070635;28;20056;-61
2023/09/14 10:29:39;;;;;;;7.38;4.00;;;;;;;12.08;99.04;100636.50;5060296;28;20040;-60
2023/09/14 10:32:14;;;;;;;7.85;3.30;;;;;;;12.09;98.50;100629.50;5060396;28;20055;-60
2023/09/14 10:34:47;;;;;;;7.03;3.25;;;;;;;11.93;98.11;100614.91;5071711;28;20055;-61
2023/09/14 10:37:38;;;;;;;9.85;4.65;;;;;;;11.87;98.29;100615.88;5059896;28;20051;-60
2023/09/14 10:40:12;;;;;;;15.27;6.15;;;;;;;11.97;98.44;100633.16;5059897;28;20087;-61
2023/09/14 10:42:44;;;;;;;7.60;3.15;;;;;;;11.92;99.03;100635.00;5071165;28;20083;-61
2023/09/14 10:45:16;;;;;;;7.13;1.70;;;;;;;11.89;99.86;100628.97;5059022;28;20050;-60
2023/09/14 10:47:52;;;;;;;7.05;1.70;;;;;;;11.99;100.00;100652.34;5069522;28;20043;-60
2023/09/14 10:50:24;;;;;;;10.18;1.80;;;;;;;11.90;100.00;100636.78;5058878;28;20681;-60
2023/09/14 10:52:58;;;;;;;7.55;1.95;;;;;;;11.95;100.00;100642.81;5069669;28;20074;-60
2023/09/14 10:55:31;;;;;;;6.28;1.70;;;;;;;11.70;100.00;100607.41;5058830;28;20180;-60
2023/09/14 10:58:03;;;;;;;3.95;1.50;;;;;;;11.71;100.00;100603.91;5069820;28;20044;-60
2023/09/14 11:00:36;;;;;;;10.65;1.50;;;;;;;11.32;100.00;100543.44;5059406;28;20138;-60
2023/09/14 11:03:26;;;;;;;6.63;2.13;;;;;;;11.93;100.00;100652.47;5059737;28;20619;-61
2023/09/14 11:05:58;;;;;;;6.53;1.60;;;;;;;11.93;100.00;100642.00;5071242;28;20173;-59
2023/09/14 11:09:05;;;;;;;9.68;1.60;;;;;;;11.85;100.00;100643.81;5059471;28;20043;-59
2023/09/14 11:11:41;;;;;;;8.07;1.60;;;;;;;11.78;100.00;100636.94;5059993;28;20176;-60
2023/09/14 11:14:17;;;;;;;5.32;1.40;;;;;;;11.74;100.00;100635.28;5058527;28;20103;-60
2023/09/14 11:16:52;;;;;;;7.15;1.70;;;;;;;11.73;100.00;100644.00;5069552;28;20040;-61
2023/09/14 11:19:48;;;;;;;8.52;1.45;;;;;;;11.72;100.00;100647.50;5058603;28;20483;-60
2023/09/14 11:22:28;;;;;;;9.43;2.33;;;;;;;11.60;100.00;100636.31;5058536;28;20066;-60
2023/09/14 11:25:09;;;;;;;9.43;1.95;;;;;;;11.60;100.00;100659.88;5070037;28;20055;-59
2023/09/14 11:28:04;;;;;;;8.85;1.92;;;;;;;11.50;100.00;100632.09;5070864;28;20040;-60
2023/09/14 11:30:44;;;;;;;7.90;1.50;;;;;;;11.40;100.00;100620.03;5059825;28;20036;-60
2023/09/14 11:33:17;;;;;;;7.00;1.55;;;;;;;11.44;100.00;100653.13;5058835;28;20131;-60
2023/09/14 11:35:54;;;;;;;6.25;1.48;;;;;;;11.33;100.00;100636.72;5070947;28;20048;-61
2023/09/14 11:38:30;;;;;;;5.05;1.40;;;;;;;11.28;100.00;100638.53;5058848;28;20060;-61
2023/09/14 11:41:06;;;;;;;4.72;1.83;;;;;;;11.10;100.00;100611.72;5063114;28;20047;-59
2023/09/14 11:44:05;;;;;;;6.97;1.63;;;;;;;11.31;100.00;100646.34;5069744;28;20041;-60
2023/09/14 11:46:59;;;;;;;7.07;1.30;;;;;;;11.15;100.00;100636.06;5069202;28;20522;-60
2023/09/14 11:49:40;;;;;;;8.40;2.22;;;;;;;11.17;100.00;100660.44;5060501;28;20363;-60
2023/09/14 11:52:13;;;;;;;7.97;1.63;;;;;;;11.10;100.00;100656.19;5060898;28;20048;-60
2023/09/14 11:54:51;;;;;;;1.70;1.10;;;;;;;10.93;100.00;100634.59;5068965;28;20055;-61